Monticello, Louisiana
Current Conditions -  °F | °C
As of 7:53 PM on Saturday 25 Oct 2014 (Local Time) from KTVR Reporting Station
Clear Clear  
Wind Chill: 63°   Ceiling: Unl
Heat Index: 63°   Visibility: 10mi
Dew Point: 59°   Wind: 3mph
Humidity: 87%   Direction: 250°WSW
Pressure: 30.07"   Gusts: NA
Location:  32.8408°N, 91.231°W
Report Text: KTVR 260053Z AUTO 25003KT 10SM CLR 17/15 A3007 RMK AO2 SLP190 T01720150
Loading
Personal Weather Stations






























Interactive Weather Map
Tropical Storm Tracking
New forecast layout! Learn more

10-Day Weather Forecast

Advertisements
Track Severe Weather on mobile